Time;durP1;ratioP1;P1;durP2;ratioP2;P2;SDS_P1;SDS_P2;PMS_P1;PMS_P2;Temp;Humidity;BMP_temperature;BMP_pressure;BME280_temperature;BME280_humidity;BME280_pressure;Samples;Min_cycle;Max_cycle;Signal;HPM_P1;HPM_P2
2021/10/19 00:00:35;;;;;;;21.63;15.43;;;14.90;99.90;;;;;;5025395;28;38223;-76
2021/10/19 00:03:01;;;;;;;23.38;15.55;;;15.00;99.90;;;;;;5040958;28;38811;-76
2021/10/19 00:05:27;;;;;;;19.10;14.82;;;14.90;99.90;;;;;;5019272;28;47514;-76
2021/10/19 00:07:54;;;;;;;19.63;13.23;;;14.90;99.90;;;;;;5011802;28;37817;-76
2021/10/19 00:10:20;;;;;;;22.27;14.10;;;14.90;99.90;;;;;;5016794;28;37200;-76
2021/10/19 00:12:46;;;;;;;17.58;14.63;;;14.90;99.90;;;;;;5011155;28;37734;-76
2021/10/19 00:15:14;;;;;;;20.83;15.50;;;15.00;99.90;;;;;;5021374;28;39154;-76
2021/10/19 00:17:42;;;;;;;19.77;14.05;;;15.00;99.90;;;;;;5011314;28;38582;-76
2021/10/19 00:20:09;;;;;;;18.35;15.05;;;15.00;99.90;;;;;;5007046;28;38059;-77
2021/10/19 00:22:36;;;;;;;20.88;15.27;;;15.00;99.90;;;;;;5020474;28;38850;-77
2021/10/19 00:25:04;;;;;;;17.83;14.40;;;15.00;99.90;;;;;;5012981;28;37969;-75
2021/10/19 00:27:34;;;;;;;20.48;14.98;;;15.00;99.90;;;;;;5017318;28;47252;-76
2021/10/19 00:30:01;;;;;;;19.27;16.20;;;15.00;99.90;;;;;;5019097;28;36214;-76
2021/10/19 00:32:27;;;;;;;18.58;16.20;;;15.00;99.90;;;;;;5018572;28;47691;-76
2021/10/19 00:34:53;;;;;;;19.80;14.77;;;15.00;99.90;;;;;;5018697;28;38907;-76
2021/10/19 00:37:19;;;;;;;22.13;16.85;;;14.90;99.90;;;;;;5023679;28;39057;-76
2021/10/19 00:39:45;;;;;;;25.65;18.05;;;14.90;99.90;;;;;;5024232;28;37700;-76
2021/10/19 00:42:12;;;;;;;20.75;17.42;;;14.80;99.90;;;;;;5009558;28;39750;-76
2021/10/19 00:44:38;;;;;;;22.13;18.15;;;14.90;99.90;;;;;;5023089;28;38822;-76
2021/10/19 00:47:04;;;;;;;25.13;19.52;;;14.80;99.90;;;;;;5040329;28;38949;-75
2021/10/19 00:49:30;;;;;;;28.08;21.00;;;14.80;99.90;;;;;;5022857;28;37106;-76
2021/10/19 00:51:58;;;;;;;25.50;19.83;;;14.80;99.90;;;;;;5045329;28;39073;-76
2021/10/19 00:54:25;;;;;;;25.95;19.80;;;14.80;99.90;;;;;;5021688;28;39633;-76
2021/10/19 00:56:53;;;;;;;27.40;19.88;;;14.80;99.90;;;;;;5045178;28;37775;-76
2021/10/19 00:59:19;;;;;;;27.52;19.95;;;14.80;99.90;;;;;;5043660;28;38264;-76
2021/10/19 01:01:46;;;;;;;36.30;23.95;;;14.80;99.90;;;;;;5010140;28;39752;-76
2021/10/19 01:04:12;;;;;;;31.58;23.55;;;14.80;99.90;;;;;;5014639;28;39033;-76
2021/10/19 01:06:40;;;;;;;30.38;22.73;;;14.80;99.90;;;;;;5036342;28;38882;-77
2021/10/19 01:09:08;;;;;;;34.58;23.20;;;14.80;99.90;;;;;;5020670;28;38450;-76
2021/10/19 01:11:35;;;;;;;33.00;21.40;;;14.80;99.90;;;;;;5002159;28;40849;-76
2021/10/19 01:14:01;;;;;;;33.10;24.00;;;14.80;99.90;;;;;;5011631;28;40089;-76
2021/10/19 01:16:27;;;;;;;29.85;22.20;;;14.90;99.90;;;;;;5035031;28;41024;-76
2021/10/19 01:18:53;;;;;;;35.33;23.02;;;14.80;99.90;;;;;;5037425;28;38424;-76
2021/10/19 01:21:19;;;;;;;29.58;21.55;;;14.80;99.90;;;;;;5019757;28;39629;-76
2021/10/19 01:23:46;;;;;;;35.30;23.90;;;14.90;99.90;;;;;;5012071;28;40080;-76
2021/10/19 01:26:14;;;;;;;37.55;24.38;;;14.90;99.90;;;;;;5037045;28;38986;-76
2021/10/19 01:28:44;;;;;;;36.70;24.98;;;14.90;99.90;;;;;;5010138;28;39190;-76
2021/10/19 01:31:12;;;;;;;37.60;24.77;;;14.90;99.90;;;;;;5025172;28;38777;-77
2021/10/19 01:33:39;;;;;;;37.53;24.88;;;14.90;99.90;;;;;;5036252;28;38516;-76
2021/10/19 01:36:07;;;;;;;38.72;26.42;;;14.90;99.90;;;;;;5033619;28;38132;-76
2021/10/19 01:38:34;;;;;;;33.10;24.00;;;14.90;99.90;;;;;;5035558;28;37597;-76
2021/10/19 01:41:01;;;;;;;34.58;25.67;;;15.00;99.90;;;;;;5025626;28;39570;-76
2021/10/19 01:43:29;;;;;;;33.65;25.25;;;15.00;99.90;;;;;;5040117;28;48449;-76
2021/10/19 01:45:57;;;;;;;35.75;26.58;;;15.00;99.90;;;;;;5033137;28;37902;-76
2021/10/19 01:48:24;;;;;;;39.75;28.83;;;15.00;99.90;;;;;;5025383;28;38776;-77
2021/10/19 01:50:51;;;;;;;43.90;28.60;;;15.00;99.90;;;;;;5016917;28;39850;-76
2021/10/19 01:53:17;;;;;;;37.85;27.90;;;15.00;99.90;;;;;;5021111;28;39094;-76
2021/10/19 01:55:43;;;;;;;40.10;29.02;;;15.00;99.90;;;;;;5025581;28;40187;-76
2021/10/19 01:58:11;;;;;;;44.72;31.10;;;15.00;99.90;;;;;;5042756;28;37380;-76
2021/10/19 02:00:38;;;;;;;40.83;29.90;;;15.10;99.90;;;;;;5025311;28;40387;-76
2021/10/19 02:03:06;;;;;;;42.47;29.02;;;15.10;99.90;;;;;;5022617;28;39560;-76
2021/10/19 02:05:32;;;;;;;41.20;29.13;;;15.10;99.90;;;;;;5040603;28;37992;-77
2021/10/19 02:08:00;;;;;;;41.05;29.25;;;15.10;99.90;;;;;;5014924;28;38367;-76
2021/10/19 02:10:26;;;;;;;38.65;27.58;;;15.10;99.90;;;;;;5014161;28;39203;-76
2021/10/19 02:12:52;;;;;;;38.45;27.77;;;15.10;99.90;;;;;;5028065;28;39379;-76
2021/10/19 02:15:21;;;;;;;41.22;28.63;;;15.10;99.90;;;;;;5021637;28;39138;-76
2021/10/19 02:17:47;;;;;;;36.30;26.38;;;15.20;99.90;;;;;;5012980;28;38215;-76
2021/10/19 02:20:13;;;;;;;38.63;27.38;;;15.10;99.90;;;;;;5038035;28;38938;-77
2021/10/19 02:22:39;;;;;;;43.65;29.92;;;15.10;99.90;;;;;;5008003;28;38395;-76
2021/10/19 02:25:05;;;;;;;39.17;28.25;;;15.20;99.90;;;;;;5017514;28;38107;-75
2021/10/19 02:27:32;;;;;;;39.45;28.52;;;15.20;99.90;;;;;;5023890;28;39064;-76
2021/10/19 02:29:58;;;;;;;42.65;28.45;;;15.20;99.90;;;;;;5024448;28;39686;-77
2021/10/19 02:32:24;;;;;;;44.47;31.20;;;15.20;99.90;;;;;;5022018;28;39331;-76
2021/10/19 02:34:50;;;;;;;50.35;32.42;;;15.30;99.90;;;;;;5039431;28;38773;-76
2021/10/19 02:37:16;;;;;;;39.63;28.35;;;15.20;99.90;;;;;;5026304;28;38134;-76
2021/10/19 02:39:43;;;;;;;41.13;28.30;;;15.30;99.90;;;;;;5035175;28;39901;-77
2021/10/19 02:42:09;;;;;;;33.15;25.83;;;15.30;99.90;;;;;;5034346;28;40667;-76
2021/10/19 02:44:35;;;;;;;41.90;29.50;;;15.30;99.90;;;;;;5040417;28;37897;-76
2021/10/19 02:47:01;;;;;;;35.47;26.08;;;15.30;99.90;;;;;;5040434;28;37350;-76
2021/10/19 02:49:27;;;;;;;39.33;28.67;;;15.30;99.90;;;;;;5028072;28;47193;-76
2021/10/19 02:51:53;;;;;;;40.20;29.33;;;15.30;99.90;;;;;;5031756;28;38094;-76
2021/10/19 02:54:19;;;;;;;40.65;28.05;;;15.30;99.90;;;;;;5033165;28;38323;-76
2021/10/19 02:56:45;;;;;;;39.15;28.85;;;15.30;99.90;;;;;;5021076;28;37857;-76
2021/10/19 02:59:11;;;;;;;39.85;28.85;;;15.30;99.90;;;;;;5020128;28;40418;-76
2021/10/19 03:01:37;;;;;;;41.22;30.38;;;15.30;99.90;;;;;;5033503;28;39454;-76
2021/10/19 03:04:03;;;;;;;37.42;28.50;;;15.40;99.90;;;;;;5035245;28;38921;-76
2021/10/19 03:06:29;;;;;;;37.80;28.17;;;15.30;99.90;;;;;;5028427;28;37593;-76
2021/10/19 03:08:57;;;;;;;40.83;28.52;;;15.40;99.90;;;;;;5016993;28;39259;-76
2021/10/19 03:11:24;;;;;;;37.95;29.02;;;15.40;99.90;;;;;;5011336;28;38746;-76
2021/10/19 03:13:50;;;;;;;44.38;31.38;;;15.40;99.90;;;;;;5031146;28;37924;-77
2021/10/19 03:16:18;;;;;;;37.63;27.50;;;15.40;99.90;;;;;;5014690;28;38333;-76
2021/10/19 03:18:45;;;;;;;41.78;29.88;;;15.40;99.90;;;;;;5029867;28;38321;-76
2021/10/19 03:21:11;;;;;;;32.50;25.75;;;15.40;99.90;;;;;;5027082;28;37452;-76
2021/10/19 03:23:37;;;;;;;31.90;25.63;;;15.40;99.90;;;;;;5018547;28;39528;-76
2021/10/19 03:26:03;;;;;;;38.85;28.95;;;15.40;99.90;;;;;;5037180;28;37635;-76
2021/10/19 03:28:30;;;;;;;35.25;26.60;;;15.40;99.90;;;;;;5039883;28;39813;-77
2021/10/19 03:30:56;;;;;;;37.25;27.33;;;15.50;99.90;;;;;;5036674;28;39980;-76
2021/10/19 03:33:22;;;;;;;38.55;28.15;;;15.50;99.90;;;;;;5044722;28;39218;-76
2021/10/19 03:35:48;;;;;;;41.63;29.45;;;15.50;99.90;;;;;;5011287;28;37880;-77
2021/10/19 03:38:14;;;;;;;39.58;29.45;;;15.50;99.90;;;;;;5043994;28;38909;-76
2021/10/19 03:40:40;;;;;;;33.60;26.95;;;15.50;99.90;;;;;;5034054;28;38095;-76
2021/10/19 03:43:06;;;;;;;36.58;27.30;;;15.50;99.90;;;;;;5008228;28;39390;-76
2021/10/19 03:45:33;;;;;;;47.65;31.92;;;15.50;99.90;;;;;;5017239;28;39461;-76
2021/10/19 03:47:59;;;;;;;37.22;28.23;;;15.50;99.90;;;;;;5011855;28;38490;-76
2021/10/19 03:50:25;;;;;;;40.40;29.70;;;15.50;99.90;;;;;;5017874;28;38359;-76
2021/10/19 03:52:54;;;;;;;35.80;29.00;;;15.50;99.90;;;;;;5021240;28;39457;-76
2021/10/19 03:55:24;;;;;;;37.88;29.10;;;15.60;99.90;;;;;;5016557;28;38281;-76
2021/10/19 03:57:51;;;;;;;32.47;26.98;;;15.60;99.90;;;;;;5017160;28;39070;-76
2021/10/19 04:00:17;;;;;;;37.92;29.30;;;15.60;99.90;;;;;;5031849;28;39328;-76
2021/10/19 04:02:43;;;;;;;29.00;24.83;;;15.60;99.90;;;;;;5042447;28;37963;-76
2021/10/19 04:05:09;;;;;;;35.45;26.83;;;15.60;99.90;;;;;;5037954;28;37672;-76
2021/10/19 04:07:35;;;;;;;29.92;25.13;;;15.60;99.90;;;;;;5021719;28;40137;-76
2021/10/19 04:10:03;;;;;;;27.50;22.20;;;15.60;99.90;;;;;;5039708;28;38178;-77
2021/10/19 04:12:29;;;;;;;38.75;26.77;;;15.70;99.90;;;;;;5036779;28;47285;-76
2021/10/19 04:14:56;;;;;;;38.65;27.60;;;15.60;99.90;;;;;;5025803;28;39201;-77
2021/10/19 04:17:22;;;;;;;26.85;22.67;;;15.70;99.90;;;;;;5038492;28;38674;-76
2021/10/19 04:19:48;;;;;;;29.33;23.92;;;15.70;99.90;;;;;;5037540;28;38201;-77
2021/10/19 04:22:14;;;;;;;24.60;21.80;;;15.70;99.90;;;;;;5021532;28;39301;-76
2021/10/19 04:24:41;;;;;;;27.92;23.40;;;15.70;99.90;;;;;;5026707;28;37110;-76
2021/10/19 04:27:07;;;;;;;27.20;24.23;;;15.70;99.90;;;;;;5027277;28;38714;-76
2021/10/19 04:29:33;;;;;;;23.63;21.10;;;15.70;99.90;;;;;;5014642;28;39441;-76
2021/10/19 04:31:59;;;;;;;36.65;26.58;;;15.80;99.90;;;;;;5019076;28;38073;-76
2021/10/19 04:34:25;;;;;;;38.60;29.38;;;15.80;99.90;;;;;;5014832;28;37534;-76
2021/10/19 04:36:51;;;;;;;32.08;26.02;;;15.80;99.90;;;;;;5026321;28;38829;-76
2021/10/19 04:39:17;;;;;;;30.77;25.73;;;15.80;99.90;;;;;;5039432;28;38614;-76
2021/10/19 04:41:44;;;;;;;32.17;26.67;;;15.80;99.90;;;;;;5045207;28;38011;-76
2021/10/19 04:44:11;;;;;;;33.75;28.42;;;15.80;99.90;;;;;;5030915;28;38214;-76
2021/10/19 04:46:37;;;;;;;35.38;28.75;;;15.80;99.90;;;;;;5013919;28;38896;-76
2021/10/19 04:49:03;;;;;;;33.72;27.05;;;15.90;99.90;;;;;;5046476;28;38362;-76
2021/10/19 04:51:29;;;;;;;36.40;30.92;;;15.90;99.90;;;;;;5017478;28;39406;-76
2021/10/19 04:53:56;;;;;;;38.60;29.77;;;15.90;99.90;;;;;;5029295;28;36217;-76
2021/10/19 04:56:22;;;;;;;42.13;32.63;;;15.90;99.90;;;;;;5033116;28;38496;-77
2021/10/19 04:58:50;;;;;;;41.00;31.77;;;15.90;99.90;;;;;;5033770;28;38921;-76
2021/10/19 05:01:16;;;;;;;40.50;30.50;;;15.90;99.90;;;;;;5031294;28;39065;-76
2021/10/19 05:03:46;;;;;;;50.78;34.70;;;15.90;99.90;;;;;;5018699;28;38428;-77
2021/10/19 05:06:16;;;;;;;40.83;31.08;;;15.90;99.90;;;;;;5021887;28;39882;-77
2021/10/19 05:08:42;;;;;;;43.35;33.42;;;16.00;99.90;;;;;;5019195;28;39011;-77
2021/10/19 05:11:08;;;;;;;55.70;37.53;;;16.00;99.90;;;;;;5025935;28;38201;-76
2021/10/19 05:13:34;;;;;;;50.95;35.83;;;16.00;99.90;;;;;;5043544;28;37213;-76
2021/10/19 05:16:01;;;;;;;59.90;38.28;;;16.00;99.90;;;;;;5030573;28;38789;-76
2021/10/19 05:18:27;;;;;;;47.65;36.85;;;16.00;99.90;;;;;;5009908;28;46760;-76
2021/10/19 05:20:53;;;;;;;40.70;32.78;;;16.00;99.90;;;;;;5040907;28;39076;-76
2021/10/19 05:23:19;;;;;;;56.17;39.90;;;16.10;99.90;;;;;;5035365;28;37560;-76
2021/10/19 05:25:45;;;;;;;46.03;34.95;;;16.10;99.90;;;;;;5014919;28;39331;-76
2021/10/19 05:28:11;;;;;;;45.35;34.85;;;16.10;99.90;;;;;;5036826;28;40609;-77
2021/10/19 05:30:37;;;;;;;59.13;40.50;;;16.10;99.90;;;;;;5044332;28;38268;-76
2021/10/19 05:33:04;;;;;;;49.42;37.95;;;16.10;99.90;;;;;;5041735;28;37667;-76
2021/10/19 05:35:30;;;;;;;42.45;34.90;;;16.10;99.90;;;;;;5035660;28;38791;-76
2021/10/19 05:37:57;;;;;;;40.83;33.92;;;16.20;99.90;;;;;;5040943;28;39141;-76
2021/10/19 05:40:23;;;;;;;48.22;35.80;;;16.20;99.90;;;;;;5020335;28;38962;-76
2021/10/19 05:42:50;;;;;;;40.13;33.53;;;16.20;99.90;;;;;;5015658;28;39420;-76
2021/10/19 05:45:17;;;;;;;47.28;36.63;;;16.20;99.90;;;;;;5027257;28;38829;-76
2021/10/19 05:47:45;;;;;;;58.72;39.80;;;16.20;99.90;;;;;;5029571;28;38366;-76
2021/10/19 05:50:15;;;;;;;44.97;35.08;;;16.20;99.90;;;;;;5007933;28;39611;-76
2021/10/19 05:52:42;;;;;;;61.47;40.60;;;16.30;99.90;;;;;;5019948;28;35803;-76
2021/10/19 05:55:09;;;;;;;48.15;36.00;;;16.30;99.90;;;;;;5017258;28;40504;-76
2021/10/19 05:57:35;;;;;;;67.18;43.63;;;16.30;99.90;;;;;;5020537;28;38920;-77
2021/10/19 06:00:04;;;;;;;54.72;38.88;;;16.30;99.90;;;;;;5022148;28;39899;-75
2021/10/19 06:02:30;;;;;;;45.83;36.35;;;16.30;99.90;;;;;;5038347;28;37925;-76
2021/10/19 06:04:56;;;;;;;48.38;38.08;;;16.40;99.90;;;;;;5014453;28;40450;-76
2021/10/19 06:07:22;;;;;;;56.50;38.00;;;16.30;99.90;;;;;;5038504;28;39380;-77
2021/10/19 06:09:48;;;;;;;37.92;32.17;;;16.40;99.90;;;;;;5038977;28;37907;-76
2021/10/19 06:12:14;;;;;;;72.55;42.63;;;16.40;99.90;;;;;;5035563;28;36138;-76
2021/10/19 06:14:40;;;;;;;51.42;35.45;;;16.40;99.90;;;;;;5027082;28;39909;-76
2021/10/19 06:17:06;;;;;;;46.28;35.42;;;16.40;99.90;;;;;;5039896;28;39477;-76
2021/10/19 06:19:32;;;;;;;44.20;34.05;;;16.50;99.90;;;;;;5046137;28;38215;-76
2021/10/19 06:21:58;;;;;;;42.45;32.92;;;16.50;99.90;;;;;;5044773;28;38250;-76
2021/10/19 06:24:24;;;;;;;42.67;33.35;;;16.50;99.90;;;;;;5018928;28;40430;-76
2021/10/19 06:26:50;;;;;;;65.15;40.92;;;16.50;99.90;;;;;;5042382;28;38597;-76
2021/10/19 06:29:16;;;;;;;52.65;36.53;;;16.50;99.90;;;;;;5038921;28;37523;-76
2021/10/19 06:31:43;;;;;;;50.63;35.67;;;16.50;99.90;;;;;;5034769;28;37476;-76
2021/10/19 06:34:10;;;;;;;47.33;34.90;;;16.60;99.90;;;;;;5018119;28;38577;-76
2021/10/19 06:36:36;;;;;;;55.38;36.97;;;16.60;99.90;;;;;;5041650;28;38363;-76
2021/10/19 06:39:03;;;;;;;56.75;37.65;;;16.60;99.90;;;;;;5013800;28;40230;-76
2021/10/19 06:41:31;;;;;;;41.92;33.85;;;16.70;99.90;;;;;;5039593;28;37455;-76
2021/10/19 06:43:58;;;;;;;45.50;33.30;;;16.70;99.90;;;;;;5020649;28;40345;-76
2021/10/19 06:46:24;;;;;;;53.63;35.00;;;16.70;99.90;;;;;;5013627;28;40188;-76
2021/10/19 06:48:50;;;;;;;43.10;33.65;;;16.70;99.90;;;;;;5037309;28;38512;-77
2021/10/19 06:51:17;;;;;;;37.22;31.60;;;16.70;99.90;;;;;;5035441;28;37935;-76
2021/10/19 06:53:43;;;;;;;47.33;33.67;;;16.70;99.90;;;;;;5008339;28;39356;-76
2021/10/19 06:56:09;;;;;;;52.97;35.65;;;16.80;99.90;;;;;;5029291;28;39078;-76
2021/10/19 06:58:35;;;;;;;47.17;33.20;;;16.80;99.90;;;;;;5031546;28;37675;-76
2021/10/19 07:01:02;;;;;;;42.83;31.35;;;16.80;99.90;;;;;;5008453;28;39085;-76
2021/10/19 07:03:29;;;;;;;49.10;35.40;;;16.80;99.90;;;;;;5016743;28;46994;-76
2021/10/19 07:05:55;;;;;;;40.28;30.80;;;16.80;99.90;;;;;;5035367;28;39544;-77
2021/10/19 07:08:22;;;;;;;40.20;31.02;;;16.80;99.90;;;;;;5014096;28;38922;-76
2021/10/19 07:10:49;;;;;;;43.10;31.60;;;16.90;99.90;;;;;;5036011;28;37647;-76
2021/10/19 07:13:21;;;;;;;29.13;26.00;;;16.90;99.90;;;;;;5037442;28;38922;-76
2021/10/19 07:15:47;;;;;;;36.78;30.45;;;16.90;99.90;;;;;;5029752;28;39508;-77
2021/10/19 07:18:14;;;;;;;42.92;32.72;;;16.90;99.90;;;;;;5024679;28;40024;-76
2021/10/19 07:20:40;;;;;;;35.00;27.23;;;16.90;99.90;;;;;;5018082;28;37476;-75
2021/10/19 07:23:06;;;;;;;36.17;28.30;;;17.00;99.90;;;;;;5008805;28;39857;-76
2021/10/19 07:25:32;;;;;;;36.78;26.85;;;17.00;99.90;;;;;;5020049;28;38620;-76
2021/10/19 07:28:00;;;;;;;26.40;23.50;;;17.00;99.90;;;;;;5022310;28;39470;-76
2021/10/19 07:30:26;;;;;;;32.67;26.80;;;17.00;99.90;;;;;;5009064;28;38033;-76
2021/10/19 07:32:53;;;;;;;29.23;25.08;;;17.00;99.90;;;;;;5025066;28;40404;-77
2021/10/19 07:35:20;;;;;;;32.53;27.00;;;17.10;99.90;;;;;;5025823;28;38894;-76
2021/10/19 07:37:46;;;;;;;36.45;26.02;;;17.10;99.90;;;;;;5026358;28;40181;-77
2021/10/19 07:40:14;;;;;;;46.30;29.98;;;17.10;99.90;;;;;;5026528;28;38482;-76
2021/10/19 07:42:41;;;;;;;27.92;24.88;;;17.20;99.90;;;;;;5017829;28;39193;-76
2021/10/19 07:45:09;;;;;;;31.23;24.65;;;17.20;99.90;;;;;;5011740;28;39123;-76
2021/10/19 07:47:43;;;;;;;35.72;28.25;;;17.20;99.90;;;;;;5025571;28;38290;-76
2021/10/19 07:50:11;;;;;;;34.78;27.45;;;17.20;99.90;;;;;;5015894;28;38466;-75
2021/10/19 07:52:37;;;;;;;28.42;24.52;;;17.20;99.90;;;;;;5016626;28;39746;-75
2021/10/19 07:55:04;;;;;;;35.28;27.80;;;17.20;99.90;;;;;;5019574;28;38977;-75
2021/10/19 07:57:31;;;;;;;28.70;25.50;;;17.20;99.90;;;;;;5020950;28;47003;-74
2021/10/19 07:59:57;;;;;;;41.75;29.38;;;17.30;99.90;;;;;;5024509;28;38536;-75
2021/10/19 08:02:23;;;;;;;35.53;27.98;;;17.30;99.90;;;;;;5021709;28;39218;-75
2021/10/19 08:04:49;;;;;;;44.75;30.17;;;17.30;99.90;;;;;;5008370;28;38677;-75
2021/10/19 08:07:15;;;;;;;41.40;29.40;;;17.30;99.90;;;;;;5017259;28;38713;-75
2021/10/19 08:09:41;;;;;;;40.17;30.33;;;17.30;99.90;;;;;;5006093;28;38793;-75
2021/10/19 08:12:07;;;;;;;30.73;26.17;;;17.40;99.90;;;;;;5008076;28;39694;-75
2021/10/19 08:14:33;;;;;;;35.55;26.13;;;17.40;99.90;;;;;;5007993;28;38063;-75
2021/10/19 08:16:59;;;;;;;37.33;25.88;;;17.40;99.90;;;;;;5004577;28;39309;-76
2021/10/19 08:19:25;;;;;;;42.03;28.95;;;17.40;99.90;;;;;;5016565;28;37519;-76
2021/10/19 08:21:51;;;;;;;33.80;26.52;;;17.40;99.90;;;;;;5013029;28;40737;-75
2021/10/19 08:24:18;;;;;;;32.10;25.25;;;17.50;99.90;;;;;;5009885;28;38431;-76
2021/10/19 08:26:44;;;;;;;32.85;23.60;;;17.50;99.90;;;;;;5016611;28;39143;-76
2021/10/19 08:29:10;;;;;;;27.27;21.50;;;17.50;99.90;;;;;;5012399;28;37668;-76
2021/10/19 08:31:36;;;;;;;36.90;25.35;;;17.60;99.90;;;;;;5012821;28;40231;-76
2021/10/19 08:34:02;;;;;;;28.15;21.63;;;17.60;99.90;;;;;;5007360;28;38889;-76
2021/10/19 08:36:29;;;;;;;32.92;23.52;;;17.60;99.90;;;;;;5013186;28;38921;-76
2021/10/19 08:38:55;;;;;;;33.22;24.30;;;17.70;99.90;;;;;;5006458;28;38190;-76
2021/10/19 08:41:22;;;;;;;38.85;26.08;;;17.70;99.90;;;;;;5005707;28;39717;-76
2021/10/19 08:43:48;;;;;;;24.55;21.20;;;17.70;99.90;;;;;;5020694;28;38411;-76
2021/10/19 08:46:15;;;;;;;33.65;24.25;;;17.80;99.90;;;;;;5016482;28;38308;-76
2021/10/19 08:48:42;;;;;;;29.65;21.52;;;17.80;99.90;;;;;;5022041;28;39226;-76
2021/10/19 08:51:09;;;;;;;31.52;23.88;;;17.80;99.90;;;;;;5010739;28;40246;-76
2021/10/19 08:53:40;;;;;;;24.80;20.85;;;17.90;99.90;;;;;;5009442;28;38454;-76
2021/10/19 08:56:06;;;;;;;33.67;22.15;;;17.90;99.90;;;;;;5010946;28;38135;-76
2021/10/19 08:58:33;;;;;;;30.85;23.80;;;17.90;99.90;;;;;;5023999;28;38411;-76
2021/10/19 09:01:03;;;;;;;27.02;22.08;;;17.90;99.90;;;;;;5018625;28;38723;-76
2021/10/19 09:03:29;;;;;;;25.88;20.52;;;18.00;99.90;;;;;;5025133;28;47493;-76
2021/10/19 09:05:56;;;;;;;29.02;21.05;;;18.00;99.90;;;;;;5020001;28;38798;-76
2021/10/19 09:08:25;;;;;;;24.98;20.23;;;18.00;99.90;;;;;;5020598;28;37058;-77
2021/10/19 09:10:51;;;;;;;27.05;20.90;;;18.10;99.90;;;;;;5023282;28;38676;-76
2021/10/19 09:13:19;;;;;;;24.15;19.48;;;18.10;99.90;;;;;;5021786;28;39259;-76
2021/10/19 09:15:47;;;;;;;29.75;21.95;;;18.10;99.90;;;;;;5021815;28;37073;-76
2021/10/19 09:18:19;;;;;;;25.20;19.52;;;18.20;99.90;;;;;;5018371;28;38088;-76
2021/10/19 09:20:51;;;;;;;21.55;18.08;;;18.20;99.90;;;;;;5022158;28;40107;-75
2021/10/19 09:23:20;;;;;;;20.98;18.05;;;18.20;99.90;;;;;;5009531;28;38664;-76
2021/10/19 09:25:49;;;;;;;24.10;18.35;;;18.30;99.90;;;;;;5015947;28;38057;-76
2021/10/19 09:28:31;;;;;;;27.67;20.48;;;18.30;99.90;;;;;;5017761;28;37489;-76
2021/10/19 09:30:59;;;;;;;25.77;20.07;;;18.30;99.90;;;;;;5019788;28;40783;-76
2021/10/19 09:33:25;;;;;;;25.13;19.90;;;18.30;99.90;;;;;;5026702;28;39472;-76
2021/10/19 09:35:55;;;;;;;24.20;20.42;;;18.30;99.90;;;;;;5022607;28;37765;-76
2021/10/19 09:38:22;;;;;;;34.30;23.80;;;18.30;99.90;;;;;;5007011;28;37597;-75
2021/10/19 09:40:50;;;;;;;30.48;23.02;;;18.40;99.90;;;;;;5011448;28;38552;-76
2021/10/19 09:43:18;;;;;;;32.30;24.30;;;18.30;99.90;;;;;;5016113;28;38497;-76
2021/10/19 09:45:52;;;;;;;27.92;19.50;;;18.30;99.90;;;;;;5014456;28;38643;-76
2021/10/19 09:48:31;;;;;;;24.02;20.05;;;18.30;99.90;;;;;;5013216;28;37911;-76
2021/10/19 09:50:59;;;;;;;30.35;22.40;;;18.30;99.90;;;;;;5019015;28;39039;-76
2021/10/19 09:53:26;;;;;;;31.20;23.23;;;18.40;99.90;;;;;;5016192;28;39336;-76
2021/10/19 09:55:54;;;;;;;22.27;19.45;;;18.40;99.90;;;;;;5033490;28;38960;-76
2021/10/19 09:58:21;;;;;;;35.83;23.45;;;18.40;99.90;;;;;;5033731;28;37598;-76
2021/10/19 10:00:48;;;;;;;27.70;20.23;;;18.40;99.90;;;;;;5022007;28;39474;-76
2021/10/19 10:03:15;;;;;;;25.80;20.25;;;18.50;99.90;;;;;;5025199;28;40347;-76
2021/10/19 10:05:42;;;;;;;29.17;21.25;;;18.40;99.90;;;;;;5016741;28;39290;-76
2021/10/19 10:08:11;;;;;;;30.13;22.05;;;18.40;99.90;;;;;;5012757;28;38474;-76
2021/10/19 10:10:37;;;;;;;28.88;21.58;;;18.40;99.90;;;;;;5010987;28;39884;-76
2021/10/19 10:13:16;;;;;;;33.70;23.95;;;18.50;99.90;;;;;;4999276;28;38420;-74
2021/10/19 10:15:42;;;;;;;34.25;24.25;;;18.50;99.90;;;;;;5027822;28;38983;-76
2021/10/19 10:18:10;;;;;;;35.97;25.02;;;18.50;99.90;;;;;;5014461;28;38658;-75
2021/10/19 10:20:38;;;;;;;31.17;22.05;;;18.50;99.90;;;;;;5011671;28;39645;-76
2021/10/19 10:23:23;;;;;;;27.17;21.67;;;18.60;99.90;;;;;;5017999;28;38523;-76
2021/10/19 10:25:54;;;;;;;27.45;21.50;;;18.60;99.90;;;;;;5026378;28;38647;-76
2021/10/19 10:28:27;;;;;;;26.75;20.65;;;18.70;99.90;;;;;;5023218;28;38166;-76
2021/10/19 10:30:56;;;;;;;24.70;19.77;;;18.70;99.90;;;;;;5024020;28;39139;-76
2021/10/19 10:34:01;;;;;;;27.05;20.30;;;18.70;99.90;;;;;;5012750;28;39079;-76
2021/10/19 10:36:38;;;;;;;30.40;21.70;;;18.70;99.90;;;;;;5010065;28;48598;-76
2021/10/19 10:39:06;;;;;;;23.58;20.08;;;18.80;99.90;;;;;;5014134;28;39301;-76
2021/10/19 10:41:37;;;;;;;23.58;18.48;;;18.80;99.90;;;;;;5023010;28;38686;-76
2021/10/19 10:44:04;;;;;;;31.15;20.65;;;18.80;99.90;;;;;;5018450;28;38152;-76
2021/10/19 10:46:30;;;;;;;24.52;18.63;;;18.80;99.90;;;;;;5011068;28;37790;-75
2021/10/19 10:48:56;;;;;;;24.50;18.25;;;18.90;99.90;;;;;;5020677;28;38151;-76
2021/10/19 10:51:31;;;;;;;19.17;16.65;;;18.90;99.90;;;;;;5013425;28;38682;-75
2021/10/19 10:53:58;;;;;;;25.10;17.88;;;18.90;99.90;;;;;;5006003;28;39709;-76
2021/10/19 10:56:25;;;;;;;21.88;18.00;;;18.90;99.90;;;;;;5016946;28;38561;-75
2021/10/19 10:58:52;;;;;;;25.88;18.63;;;18.90;99.90;;;;;;5013937;28;37660;-76
2021/10/19 11:01:30;;;;;;;26.42;17.25;;;18.90;99.90;;;;;;5016272;28;39399;-74
2021/10/19 11:04:07;;;;;;;21.67;16.50;;;18.90;99.90;;;;;;5006136;28;38465;-76
2021/10/19 11:06:35;;;;;;;22.95;17.00;;;18.90;99.90;;;;;;5017780;28;47333;-75
2021/10/19 11:09:14;;;;;;;18.00;15.98;;;18.90;99.90;;;;;;5009640;28;39063;-76
2021/10/19 11:11:42;;;;;;;25.58;19.10;;;19.00;99.90;;;;;;5011996;28;38825;-76
2021/10/19 11:14:10;;;;;;;22.30;18.27;;;19.00;99.90;;;;;;5010290;28;38921;-76
2021/10/19 11:16:45;;;;;;;22.67;18.70;;;19.10;99.90;;;;;;5022661;28;39755;-76
2021/10/19 11:19:24;;;;;;;24.63;19.25;;;19.10;99.90;;;;;;5021892;28;36435;-76
2021/10/19 11:22:03;;;;;;;24.35;18.33;;;19.20;99.90;;;;;;5024487;28;39201;-75
2021/10/19 11:24:31;;;;;;;25.23;17.85;;;19.10;99.90;;;;;;5011597;28;50289;-75
2021/10/19 11:27:00;;;;;;;22.35;16.58;;;19.20;99.90;;;;;;5018334;28;38100;-75
2021/10/19 11:29:27;;;;;;;20.88;15.50;;;19.20;99.90;;;;;;5018790;28;37188;-76
2021/10/19 11:31:53;;;;;;;20.15;16.77;;;19.20;99.90;;;;;;5022955;28;38585;-75
2021/10/19 11:34:19;;;;;;;19.75;15.85;;;19.20;99.90;;;;;;5012068;28;37415;-76
2021/10/19 11:36:45;;;;;;;21.10;16.13;;;19.20;99.90;;;;;;5021735;28;37779;-76
2021/10/19 11:39:15;;;;;;;18.35;15.70;;;19.20;99.90;;;;;;5016021;28;36200;-76
2021/10/19 11:41:53;;;;;;;22.05;17.02;;;19.20;99.90;;;;;;5007808;28;38813;-76
2021/10/19 11:44:19;;;;;;;20.45;15.80;;;19.30;99.90;;;;;;5008930;28;37543;-76
2021/10/19 11:46:45;;;;;;;23.45;17.35;;;19.20;99.90;;;;;;5016284;28;38099;-76
2021/10/19 11:49:12;;;;;;;17.95;15.85;;;19.30;99.90;;;;;;5017165;28;39051;-75
2021/10/19 11:51:45;;;;;;;19.40;15.80;;;19.30;99.90;;;;;;5005807;28;40510;-77
2021/10/19 11:54:14;;;;;;;23.35;16.27;;;19.40;99.90;;;;;;5014031;28;39519;-76
2021/10/19 11:56:41;;;;;;;22.83;16.38;;;19.40;99.90;;;;;;5018638;28;38551;-76
2021/10/19 11:59:08;;;;;;;24.83;16.75;;;19.40;99.90;;;;;;5029855;28;37984;-76
2021/10/19 12:01:41;;;;;;;25.55;17.25;;;19.40;99.90;;;;;;5014795;28;40735;-76
2021/10/19 12:04:12;;;;;;;23.38;16.52;;;19.40;99.90;;;;;;5012485;28;39674;-76
2021/10/19 12:06:44;;;;;;;23.92;16.17;;;19.60;99.90;;;;;;5020617;28;36492;-76
2021/10/19 12:09:14;;;;;;;22.73;15.80;;;19.70;99.90;;;;;;5010736;28;38815;-76
2021/10/19 12:11:50;;;;;;;23.92;16.13;;;19.70;99.90;;;;;;5009469;28;39431;-75
2021/10/19 12:14:17;;;;;;;20.30;16.45;;;19.70;99.90;;;;;;5007692;28;39335;-77
2021/10/19 12:16:52;;;;;;;22.02;16.98;;;19.70;99.90;;;;;;5005314;28;38884;-77
2021/10/19 12:19:18;;;;;;;25.50;16.33;;;19.70;99.90;;;;;;5029161;28;37588;-77
2021/10/19 12:21:51;;;;;;;25.70;17.15;;;19.70;99.90;;;;;;5011721;28;39451;-77
2021/10/19 12:24:17;;;;;;;23.33;16.73;;;19.70;99.90;;;;;;5004438;28;38888;-77
2021/10/19 12:26:44;;;;;;;26.42;17.63;;;19.80;99.90;;;;;;5018768;28;38327;-77
2021/10/19 12:29:12;;;;;;;28.00;17.75;;;19.90;99.90;;;;;;5010538;28;37385;-77